createdAt,value
2023-02-09T00:00:28.040Z,15.3
2023-02-09T00:02:08.685Z,16.1
2023-02-09T00:03:48.962Z,16.1
2023-02-09T00:05:29.238Z,16.1
2023-02-09T00:07:09.697Z,16.1
2023-02-09T00:08:50.128Z,16.1
2023-02-09T00:10:30.624Z,16.1
2023-02-09T00:12:11.064Z,18.2
2023-02-09T00:13:51.448Z,18.2
2023-02-09T00:15:31.923Z,18.2
2023-02-09T00:17:12.331Z,18.2
2023-02-09T00:18:52.743Z,18.2
2023-02-09T00:20:33.270Z,18.2
2023-02-09T00:22:13.697Z,16.6
2023-02-09T00:23:54.202Z,16.6
2023-02-09T00:25:34.646Z,16.6
2023-02-09T00:27:14.975Z,16.6
2023-02-09T00:28:55.309Z,16.6
2023-02-09T00:30:35.821Z,16.6
2023-02-09T00:32:16.194Z,15.9
2023-02-09T00:33:56.711Z,15.9
2023-02-09T00:35:37.174Z,15.9
2023-02-09T00:37:17.536Z,15.9
2023-02-09T00:38:57.902Z,15.9
2023-02-09T00:40:38.409Z,15.9
2023-02-09T00:42:18.878Z,15.8
2023-02-09T00:43:59.368Z,15.8
2023-02-09T00:45:39.868Z,15.8
2023-02-09T00:47:20.267Z,15.8
2023-02-09T00:49:00.691Z,15.8
2023-02-09T00:50:41.006Z,15.8
2023-02-09T00:52:21.517Z,15.2
2023-02-09T00:54:01.986Z,15.2
2023-02-09T00:55:42.469Z,15.2
2023-02-09T00:57:22.904Z,15.2
2023-02-09T00:59:03.329Z,15.2
2023-02-09T01:00:43.915Z,15.2
2023-02-09T01:02:23.862Z,13
2023-02-09T01:04:04.194Z,13
2023-02-09T01:05:44.495Z,13
2023-02-09T01:07:24.764Z,13
2023-02-09T01:09:05.095Z,13
2023-02-09T01:10:45.811Z,13
2023-02-09T01:12:26.079Z,13.3
2023-02-09T01:14:06.514Z,13.3
2023-02-09T01:15:46.901Z,13.3
2023-02-09T01:17:27.365Z,13.3
2023-02-09T01:19:07.853Z,13.3
2023-02-09T01:20:48.181Z,13.3
2023-02-09T01:22:28.701Z,13.2
2023-02-09T01:24:09.120Z,13.2
2023-02-09T01:25:49.590Z,13.2
2023-02-09T01:27:30.028Z,13.2
2023-02-09T01:29:10.532Z,13.2
2023-02-09T01:30:50.899Z,13.2
2023-02-09T01:32:31.100Z,10.9
2023-02-09T01:34:11.482Z,10.9
2023-02-09T01:35:51.940Z,10.9
2023-02-09T01:37:32.479Z,10.9
2023-02-09T01:39:12.866Z,10.9
2023-02-09T01:40:53.398Z,10.9
2023-02-09T01:42:33.914Z,8.9
2023-02-09T01:44:14.351Z,8.9
2023-02-09T01:45:54.914Z,8.9
2023-02-09T01:47:35.232Z,8.9
2023-02-09T01:49:15.701Z,8.9
2023-02-09T01:50:56.204Z,8.9
2023-02-09T01:52:36.711Z,11.7
2023-02-09T01:54:17.032Z,11.7
2023-02-09T01:55:57.416Z,11.7
2023-02-09T01:57:37.892Z,11.7
2023-02-09T01:59:18.357Z,11.7
2023-02-09T02:01:00.147Z,11.7
2023-02-09T02:02:39.226Z,13.5
2023-02-09T02:04:19.619Z,13.5
2023-02-09T02:06:00.117Z,13.5
2023-02-09T02:07:40.414Z,13.5
2023-02-09T02:09:20.747Z,13.5
2023-02-09T02:11:01.183Z,13.5
2023-02-09T02:12:41.718Z,13
2023-02-09T02:14:22.090Z,13
2023-02-09T02:16:02.685Z,13
2023-02-09T02:17:43.036Z,13
2023-02-09T02:19:23.444Z,13
2023-02-09T02:21:03.858Z,13
2023-02-09T02:22:44.316Z,13.2
2023-02-09T02:24:24.768Z,13.2
2023-02-09T02:26:07.074Z,13.2
2023-02-09T02:27:45.777Z,13.2
2023-02-09T02:29:26.243Z,13.2
2023-02-09T02:31:06.723Z,13.2
2023-02-09T02:32:46.845Z,13.2
2023-02-09T02:34:27.129Z,14.4
2023-02-09T02:36:07.467Z,14.4
2023-02-09T02:37:47.752Z,14.4
2023-02-09T02:39:28.096Z,14.4
2023-02-09T02:41:08.591Z,14.4
2023-02-09T02:42:48.988Z,14.4
2023-02-09T02:44:29.467Z,13.4
2023-02-09T02:46:10.047Z,13.4
2023-02-09T02:47:50.379Z,13.4
2023-02-09T02:49:30.780Z,13.4
2023-02-09T02:51:11.074Z,13.4
2023-02-09T02:52:51.350Z,13.4
2023-02-09T02:54:31.695Z,9.1
2023-02-09T02:56:12.080Z,9.1
2023-02-09T02:57:52.628Z,9.1
2023-02-09T02:59:33.021Z,9.1
2023-02-09T03:01:13.677Z,9.1
2023-02-09T03:02:54.106Z,9.1
2023-02-09T03:04:34.395Z,13
2023-02-09T03:06:14.692Z,13
2023-02-09T03:07:55.007Z,13
2023-02-09T03:11:15.884Z,13
2023-02-09T03:12:56.258Z,13
2023-02-09T03:14:36.680Z,14
2023-02-09T03:16:17.250Z,14
2023-02-09T03:17:57.635Z,14
2023-02-09T03:19:38.058Z,14
2023-02-09T03:21:18.523Z,14
2023-02-09T03:22:58.925Z,14
2023-02-09T03:24:39.444Z,13.3
2023-02-09T03:26:19.825Z,13.3
2023-02-09T03:28:00.398Z,13.3
2023-02-09T03:29:40.746Z,13.3
2023-02-09T03:31:21.475Z,13.3
2023-02-09T03:33:01.746Z,13.3
2023-02-09T03:34:42.096Z,13.3
2023-02-09T03:36:22.385Z,13.3
2023-02-09T03:38:02.778Z,13.3
2023-02-09T03:39:43.195Z,13.3
2023-02-09T03:41:23.580Z,13.3
2023-02-09T03:43:04.011Z,13.3
2023-02-09T03:44:44.471Z,13.1
2023-02-09T03:46:24.988Z,13.1
2023-02-09T03:48:05.488Z,13.1
2023-02-09T03:49:45.936Z,13.1
2023-02-09T03:51:26.349Z,13.1
2023-02-09T03:53:06.824Z,13.1
2023-02-09T03:54:47.273Z,12
2023-02-09T03:56:27.776Z,12
2023-02-09T03:58:08.312Z,12
2023-02-09T03:59:48.663Z,12
2023-02-09T04:01:28.946Z,12
2023-02-09T04:03:09.266Z,12
2023-02-09T04:04:49.519Z,12.1
2023-02-09T04:06:29.830Z,12.1
2023-02-09T04:08:10.111Z,12.1
2023-02-09T04:09:50.394Z,12.1
2023-02-09T04:11:30.641Z,12.1
2023-02-09T04:13:10.979Z,12.1
2023-02-09T04:14:51.322Z,10.4
2023-02-09T04:16:31.621Z,10.4
2023-02-09T04:18:11.930Z,10.4
2023-02-09T04:19:52.270Z,10.4
2023-02-09T04:21:32.564Z,10.4
2023-02-09T04:23:12.863Z,10.4
2023-02-09T04:24:53.205Z,9.3
2023-02-09T04:26:33.444Z,9.3
2023-02-09T04:28:13.892Z,9.3
2023-02-09T04:29:54.058Z,9.3
2023-02-09T04:31:34.370Z,9.3
2023-02-09T04:33:14.680Z,9.3
2023-02-09T04:34:54.961Z,7.8
2023-02-09T04:36:35.233Z,7.8
2023-02-09T04:38:15.532Z,7.8
2023-02-09T04:39:55.839Z,7.8
2023-02-09T04:41:36.334Z,7.8
2023-02-09T04:43:16.709Z,7.8
2023-02-09T04:44:57.141Z,8.3
2023-02-09T04:46:37.640Z,8.3
2023-02-09T04:48:18.074Z,8.3
2023-02-09T04:49:58.629Z,8.3
2023-02-09T04:51:39.102Z,8.3
2023-02-09T04:53:19.605Z,8.3
2023-02-09T04:55:00.044Z,11.3
2023-02-09T04:56:40.562Z,11.3
2023-02-09T04:58:20.900Z,11.3
2023-02-09T05:00:01.208Z,11.3
2023-02-09T05:01:41.479Z,11.3
2023-02-09T05:03:24.302Z,11.3
2023-02-09T05:05:02.068Z,12
2023-02-09T05:06:42.289Z,12
2023-02-09T05:08:22.658Z,12
2023-02-09T05:10:03.049Z,12
2023-02-09T05:11:43.342Z,12
2023-02-09T05:13:23.616Z,12
2023-02-09T05:15:03.912Z,11.8
2023-02-09T05:16:44.373Z,11.8
2023-02-09T05:18:24.752Z,11.8
2023-02-09T05:20:05.239Z,11.8
2023-02-09T05:21:45.769Z,11.8
2023-02-09T05:23:26.187Z,11.8
2023-02-09T05:25:06.709Z,10.6
2023-02-09T05:26:47.231Z,10.6
2023-02-09T05:28:27.826Z,10.6
2023-02-09T05:30:08.147Z,10.6
2023-02-09T05:31:48.665Z,10.6
2023-02-09T05:33:28.929Z,10.6
2023-02-09T05:35:09.207Z,12.3
2023-02-09T05:36:49.579Z,12.3
2023-02-09T05:38:30.028Z,12.3
2023-02-09T05:40:10.282Z,12.3
2023-02-09T05:41:50.745Z,12.3
2023-02-09T05:43:31.242Z,12.3
2023-02-09T05:45:11.691Z,13.7
2023-02-09T05:46:52.112Z,13.7
2023-02-09T05:48:32.619Z,13.7
2023-02-09T05:50:13.027Z,13.7
2023-02-09T05:51:53.460Z,13.7
2023-02-09T05:53:33.963Z,13.7
2023-02-09T05:55:14.486Z,13.7
2023-02-09T05:56:54.975Z,13.1
2023-02-09T05:58:35.369Z,13.1
2023-02-09T06:00:15.843Z,13.1
2023-02-09T06:01:56.097Z,13.1
2023-02-09T06:03:36.585Z,13.1
2023-02-09T06:05:16.933Z,12.3
2023-02-09T06:06:57.400Z,12.3
2023-02-09T06:08:37.927Z,12.3
2023-02-09T06:10:18.363Z,12.3
2023-02-09T06:11:58.797Z,12.3
2023-02-09T06:13:39.294Z,12.3
2023-02-09T06:15:19.691Z,12.3
2023-02-09T06:17:00.192Z,8.6
2023-02-09T06:18:40.662Z,8.6
2023-02-09T06:20:21.010Z,8.6
2023-02-09T06:22:01.322Z,8.6
2023-02-09T06:23:41.632Z,8.6
2023-02-09T06:25:21.878Z,8.6
2023-02-09T06:27:02.252Z,8.5
2023-02-09T06:28:42.739Z,8.5
2023-02-09T06:30:23.104Z,8.5
2023-02-09T06:32:09.208Z,8.5
2023-02-09T06:33:49.381Z,8.5
2023-02-09T06:35:29.695Z,8.5
2023-02-09T06:37:10.052Z,12.3
2023-02-09T06:38:50.542Z,12.3
2023-02-09T06:40:31.030Z,12.3
2023-02-09T06:42:11.456Z,12.3
2023-02-09T06:43:51.896Z,12.3
2023-02-09T06:45:32.413Z,12.3
2023-02-09T06:47:12.714Z,10.6
2023-02-09T06:48:53.023Z,10.6
2023-02-09T06:50:33.387Z,10.6
2023-02-09T06:52:13.621Z,10.6
2023-02-09T06:53:53.925Z,10.6
2023-02-09T06:55:34.339Z,10.6
2023-02-09T06:57:14.737Z,11.6
2023-02-09T06:58:55.218Z,11.6
2023-02-09T07:00:35.622Z,11.6
2023-02-09T07:02:16.184Z,11.6
2023-02-09T07:03:56.428Z,11.6
2023-02-09T07:05:36.927Z,11.6
2023-02-09T07:07:17.475Z,13.3
2023-02-09T07:08:57.909Z,13.3
2023-02-09T07:10:38.354Z,13.3
2023-02-09T07:12:18.791Z,13.3
2023-02-09T07:13:59.243Z,13.3
2023-02-09T07:15:39.759Z,13.3
2023-02-09T07:17:20.069Z,10.5
2023-02-09T07:19:00.562Z,10.5
2023-02-09T07:20:40.956Z,10.5
2023-02-09T07:22:21.414Z,10.5
2023-02-09T07:24:01.876Z,10.5
2023-02-09T07:25:42.437Z,10.5
2023-02-09T07:27:22.837Z,7.6
2023-02-09T07:29:03.297Z,7.6
2023-02-09T07:30:44.029Z,7.6
2023-02-09T07:32:24.221Z,7.6
2023-02-09T07:34:04.666Z,7.6
2023-02-09T07:35:45.100Z,7.6
2023-02-09T07:37:25.579Z,6.9
2023-02-09T07:39:06.025Z,6.9
2023-02-09T07:40:47.089Z,6.9
2023-02-09T07:42:27.035Z,6.9
2023-02-09T07:44:07.462Z,6.9
2023-02-09T07:45:48.177Z,6.9
2023-02-09T07:47:28.424Z,10.1
2023-02-09T07:49:08.885Z,10.1
2023-02-09T07:50:49.295Z,10.1
2023-02-09T07:52:29.724Z,10.1
2023-02-09T07:54:10.218Z,10.1
2023-02-09T07:55:50.700Z,10.1
2023-02-09T07:57:31.246Z,10.8
2023-02-09T07:59:11.692Z,10.8
2023-02-09T08:00:52.124Z,10.8
2023-02-09T08:02:32.522Z,10.8
2023-02-09T08:04:12.993Z,10.8
2023-02-09T08:05:53.457Z,10.8
2023-02-09T08:07:33.881Z,8.9
2023-02-09T08:09:14.293Z,8.9
2023-02-09T08:10:54.827Z,8.9
2023-02-09T08:12:35.270Z,8.9
2023-02-09T08:14:15.664Z,8.9
2023-02-09T08:15:56.186Z,8.9
2023-02-09T08:17:36.576Z,12.2
2023-02-09T08:19:17.005Z,12.2
2023-02-09T08:20:57.482Z,12.2
2023-02-09T08:22:37.943Z,12.2
2023-02-09T08:24:18.405Z,12.2
2023-02-09T08:25:58.912Z,12.2
2023-02-09T08:27:39.336Z,12.1
2023-02-09T08:29:19.818Z,12.1
2023-02-09T08:31:00.334Z,12.1
2023-02-09T08:32:40.827Z,12.1
2023-02-09T08:34:21.345Z,12.1
2023-02-09T08:36:01.850Z,12.1
2023-02-09T08:37:42.392Z,9
2023-02-09T08:39:22.722Z,9
2023-02-09T08:41:03.197Z,9
2023-02-09T08:42:43.692Z,9
2023-02-09T08:44:24.132Z,9
2023-02-09T08:46:04.764Z,9
2023-02-09T08:47:45.103Z,11.8
2023-02-09T08:49:25.566Z,11.8
2023-02-09T08:51:06.075Z,11.8
2023-02-09T08:52:46.526Z,11.8
2023-02-09T08:54:26.950Z,11.8
2023-02-09T08:56:07.388Z,11.8
2023-02-09T08:57:53.793Z,10
2023-02-09T08:59:34.311Z,10
2023-02-09T09:01:14.812Z,10
2023-02-09T09:02:55.259Z,10
2023-02-09T09:04:35.823Z,10
2023-02-09T09:06:17.225Z,10
2023-02-09T09:07:56.649Z,12
2023-02-09T09:09:37.137Z,12
2023-02-09T09:11:17.553Z,12
2023-02-09T09:12:58.030Z,12
2023-02-09T09:14:38.517Z,12
2023-02-09T09:16:19.094Z,12
2023-02-09T09:17:59.477Z,11
2023-02-09T09:19:39.880Z,11
2023-02-09T09:21:20.369Z,11
2023-02-09T09:23:00.880Z,11
2023-02-09T09:24:41.315Z,11
2023-02-09T09:26:27.798Z,11
2023-02-09T09:28:08.199Z,9.3
2023-02-09T09:29:48.639Z,9.3
2023-02-09T09:31:29.207Z,9.3
2023-02-09T09:33:09.665Z,9.3
2023-02-09T09:34:50.161Z,9.3
2023-02-09T09:36:30.578Z,9.3
2023-02-09T09:38:11.012Z,8.7
2023-02-09T09:39:51.492Z,8.7
2023-02-09T09:41:31.956Z,8.7
2023-02-09T09:43:12.481Z,8.7
2023-02-09T09:44:52.922Z,8.7
2023-02-09T09:46:33.480Z,8.7
2023-02-09T09:48:13.880Z,8
2023-02-09T09:49:54.346Z,8
2023-02-09T09:51:34.816Z,8
2023-02-09T09:53:15.324Z,8
2023-02-09T09:54:55.819Z,8
2023-02-09T09:56:36.224Z,8
2023-02-09T09:58:16.690Z,6.5
2023-02-09T09:59:57.114Z,6.5
2023-02-09T10:01:43.279Z,6.5
2023-02-09T10:03:23.714Z,6.5
2023-02-09T10:05:04.252Z,6.5
2023-02-09T10:06:44.732Z,6.5
2023-02-09T10:08:25.187Z,8.5
2023-02-09T10:10:05.652Z,8.5
2023-02-09T10:11:46.067Z,8.5
2023-02-09T10:13:26.537Z,8.5
2023-02-09T10:15:07.084Z,8.5
2023-02-09T10:16:47.582Z,8.5
2023-02-09T10:20:08.544Z,9.2
2023-02-09T10:21:49.016Z,9.2
2023-02-09T10:23:29.506Z,9.2
2023-02-09T10:25:09.993Z,9.2
2023-02-09T10:26:50.490Z,9.2
2023-02-09T10:28:30.967Z,7.45
2023-02-09T10:30:11.344Z,7.45
2023-02-09T10:31:51.974Z,7.45
2023-02-09T10:33:32.292Z,7.45
2023-02-09T10:35:12.851Z,7.45
2023-02-09T10:36:53.363Z,7.45
2023-02-09T10:38:33.826Z,12.2
2023-02-09T10:40:14.211Z,12.2
2023-02-09T10:41:54.713Z,12.2
2023-02-09T10:43:35.132Z,12.2
2023-02-09T10:45:15.662Z,12.2
2023-02-09T10:46:56.102Z,12.2
2023-02-09T10:48:36.521Z,12.8
2023-02-09T10:50:17.064Z,12.8
2023-02-09T10:51:57.501Z,12.8
2023-02-09T10:53:38.045Z,12.8
2023-02-09T10:55:18.471Z,12.8
2023-02-09T10:57:00.394Z,12.8
2023-02-09T10:58:39.419Z,6.45
2023-02-09T11:00:19.872Z,6.45
2023-02-09T11:02:00.401Z,6.45
2023-02-09T11:03:40.869Z,6.45
2023-02-09T11:05:21.285Z,6.45
2023-02-09T11:07:01.798Z,6.45
2023-02-09T11:08:42.219Z,6.45
2023-02-09T11:10:22.596Z,8.25
2023-02-09T11:12:03.147Z,8.25
2023-02-09T11:13:43.561Z,8.25
2023-02-09T11:15:24.036Z,8.25
2023-02-09T11:17:04.474Z,8.25
2023-02-09T11:18:44.965Z,6.25
2023-02-09T11:20:25.426Z,6.25
2023-02-09T11:22:05.894Z,6.25
2023-02-09T11:23:46.309Z,6.25
2023-02-09T11:25:26.758Z,6.25
2023-02-09T11:27:07.265Z,6.25
2023-02-09T11:28:47.684Z,6.25
2023-02-09T11:30:28.167Z,6.05
2023-02-09T11:32:08.650Z,6.05
2023-02-09T11:33:49.245Z,6.05
2023-02-09T11:35:29.779Z,6.05
2023-02-09T11:37:10.266Z,6.05
2023-02-09T11:38:50.801Z,6.05
2023-02-09T11:40:31.269Z,5.3
2023-02-09T11:42:11.689Z,5.3
2023-02-09T11:43:52.174Z,5.3
2023-02-09T11:45:32.650Z,5.3
2023-02-09T11:47:13.194Z,5.3
2023-02-09T11:48:53.681Z,5.3
2023-02-09T11:50:34.124Z,7
2023-02-09T11:52:14.581Z,7
2023-02-09T11:53:55.097Z,7
2023-02-09T11:55:35.498Z,7
2023-02-09T11:57:16.009Z,7
2023-02-09T11:58:56.458Z,7
2023-02-09T12:00:47.933Z,8.2
2023-02-09T12:02:17.376Z,8.2
2023-02-09T12:03:57.751Z,8.2
2023-02-09T12:05:38.270Z,8.2
2023-02-09T12:07:18.702Z,8.2
2023-02-09T12:08:59.125Z,8.2
2023-02-09T12:10:39.618Z,11.7
2023-02-09T12:12:20.065Z,11.7
2023-02-09T12:14:00.526Z,11.7
2023-02-09T12:15:40.854Z,11.7
2023-02-09T12:17:21.350Z,11.7
2023-02-09T12:19:01.905Z,11.7
2023-02-09T12:20:42.406Z,14.1
2023-02-09T12:22:22.847Z,14.1
2023-02-09T12:24:03.268Z,14.1
2023-02-09T12:25:43.828Z,14.1
2023-02-09T12:27:24.210Z,14.1
2023-02-09T12:29:04.701Z,14.1
2023-02-09T12:30:45.482Z,8.4
2023-02-09T12:32:25.665Z,8.4
2023-02-09T12:34:06.116Z,8.4
2023-02-09T12:35:46.574Z,8.4
2023-02-09T12:37:27.662Z,8.4
2023-02-09T12:39:07.543Z,8.4
2023-02-09T12:40:48.020Z,9
2023-02-09T12:42:28.463Z,9
2023-02-09T12:44:09.028Z,9
2023-02-09T12:45:49.811Z,9
2023-02-09T12:47:29.926Z,9
2023-02-09T12:49:10.386Z,9
2023-02-09T12:50:50.879Z,8.5
2023-02-09T12:52:31.296Z,8.5
2023-02-09T12:54:11.694Z,8.5
2023-02-09T12:55:52.188Z,8.5
2023-02-09T12:57:32.589Z,8.5
2023-02-09T12:59:13.045Z,8.5
2023-02-09T13:01:00.674Z,7.1
2023-02-09T13:02:34.000Z,7.1
2023-02-09T13:04:14.642Z,7.1
2023-02-09T13:06:02.075Z,7.1
2023-02-09T13:07:35.505Z,7.1
2023-02-09T13:09:15.996Z,7.1
2023-02-09T13:10:59.514Z,8.7
2023-02-09T13:12:36.889Z,8.7
2023-02-09T13:14:17.315Z,8.7
2023-02-09T13:15:57.802Z,8.7
2023-02-09T13:17:38.199Z,8.7
2023-02-09T13:19:18.638Z,8.7
2023-02-09T13:20:59.255Z,8.6
2023-02-09T13:22:39.606Z,8.6
2023-02-09T13:24:20.032Z,8.6
2023-02-09T13:26:03.639Z,8.6
2023-02-09T13:27:40.963Z,8.6
2023-02-09T13:29:22.278Z,8.6
2023-02-09T13:31:05.015Z,8.8
2023-02-09T13:32:42.416Z,8.8
2023-02-09T13:34:25.977Z,8.8
2023-02-09T13:36:08.858Z,8.8
2023-02-09T13:37:47.017Z,8.8
2023-02-09T13:39:24.459Z,8.8
2023-02-09T13:41:04.912Z,12.1
2023-02-09T13:42:45.355Z,12.1
2023-02-09T13:44:25.763Z,12.1
2023-02-09T13:46:06.500Z,12.1
2023-02-09T13:47:46.691Z,12.1
2023-02-09T13:49:27.185Z,12.1
2023-02-09T13:51:07.724Z,11.5
2023-02-09T13:52:48.263Z,11.5
2023-02-09T13:54:28.733Z,11.5
2023-02-09T13:56:09.161Z,11.5
2023-02-09T13:57:49.566Z,11.5
2023-02-09T13:59:30.017Z,11.5
2023-02-09T14:01:10.511Z,7.1
2023-02-09T14:02:50.974Z,7.1
2023-02-09T14:04:31.368Z,7.1
2023-02-09T14:06:11.766Z,7.1
2023-02-09T14:07:52.310Z,7.1
2023-02-09T14:09:32.754Z,7.1
2023-02-09T14:11:13.342Z,7.4
2023-02-09T14:12:53.775Z,7.4
2023-02-09T14:14:34.249Z,7.4
2023-02-09T14:16:14.764Z,7.4
2023-02-09T14:17:56.383Z,7.4
2023-02-09T14:19:35.663Z,7.4
2023-02-09T14:21:16.030Z,9.6
2023-02-09T14:22:56.475Z,9.6
2023-02-09T14:24:36.920Z,9.6
2023-02-09T14:26:17.348Z,9.6
2023-02-09T14:27:57.992Z,9.6
2023-02-09T14:29:38.291Z,9.6
2023-02-09T14:31:18.877Z,8.7
2023-02-09T14:32:59.305Z,8.7
2023-02-09T14:34:39.766Z,8.7
2023-02-09T14:36:20.180Z,8.7
2023-02-09T14:38:00.642Z,8.7
2023-02-09T14:39:41.118Z,8.7
2023-02-09T14:41:21.628Z,7.1
2023-02-09T14:43:02.129Z,7.1
2023-02-09T14:44:42.557Z,7.1
2023-02-09T14:46:23.053Z,7.1
2023-02-09T14:48:03.481Z,7.1
2023-02-09T14:49:43.974Z,7.1
2023-02-09T14:51:24.545Z,6.15
2023-02-09T14:53:04.913Z,6.15
2023-02-09T14:54:45.340Z,6.15
2023-02-09T14:56:25.822Z,6.15
2023-02-09T14:58:06.293Z,6.15
2023-02-09T14:59:46.692Z,6.15
2023-02-09T15:01:27.252Z,6.15
2023-02-09T15:03:07.736Z,9.6
2023-02-09T15:04:48.220Z,9.6
2023-02-09T15:06:28.650Z,9.6
2023-02-09T15:08:09.183Z,9.6
2023-02-09T15:09:49.639Z,9.6
2023-02-09T15:11:30.050Z,6.05
2023-02-09T15:13:11.901Z,6.05
2023-02-09T15:14:50.982Z,6.05
2023-02-09T15:16:31.405Z,6.05
2023-02-09T15:18:11.889Z,6.05
2023-02-09T15:19:52.416Z,6.05
2023-02-09T15:21:32.814Z,6.05
2023-02-09T15:23:13.329Z,6.55
2023-02-09T15:24:54.677Z,6.55
2023-02-09T15:26:34.172Z,6.55
2023-02-09T15:28:14.670Z,6.55
2023-02-09T15:29:56.592Z,6.55
2023-02-09T15:31:35.779Z,6.55
2023-02-09T15:33:16.166Z,4.25
2023-02-09T15:34:56.609Z,4.25
2023-02-09T15:36:37.134Z,4.25
2023-02-09T15:38:17.586Z,4.25
2023-02-09T15:39:58.068Z,4.25
2023-02-09T15:41:38.560Z,4.25
2023-02-09T15:43:19.027Z,7.7
2023-02-09T15:44:59.440Z,7.7
2023-02-09T15:46:40.059Z,7.7
2023-02-09T15:48:20.390Z,7.7
2023-02-09T15:50:06.118Z,7.7
2023-02-09T15:51:46.441Z,7.7
2023-02-09T15:53:26.746Z,5.55
2023-02-09T15:55:07.095Z,5.55
2023-02-09T15:56:47.584Z,5.55
2023-02-09T15:58:28.010Z,5.55
2023-02-09T16:00:08.461Z,5.55
2023-02-09T16:01:48.885Z,5.55
2023-02-09T16:03:29.268Z,6.2
2023-02-09T16:05:09.674Z,6.2
2023-02-09T16:06:50.053Z,6.2
2023-02-09T16:08:30.478Z,6.2
2023-02-09T16:10:10.920Z,6.2
2023-02-09T16:11:51.333Z,6.2
2023-02-09T16:13:31.755Z,9.1
2023-02-09T16:15:12.136Z,9.1
2023-02-09T16:16:52.770Z,9.1
2023-02-09T16:18:33.034Z,9.1
2023-02-09T16:20:13.512Z,9.1
2023-02-09T16:21:53.996Z,9.1
2023-02-09T16:23:34.396Z,8.4
2023-02-09T16:25:14.867Z,8.4
2023-02-09T16:27:01.902Z,8.4
2023-02-09T16:28:42.318Z,8.4
2023-02-09T16:30:22.755Z,8.4
2023-02-09T16:32:03.281Z,8.4
2023-02-09T16:33:43.692Z,8.45
2023-02-09T16:35:24.100Z,8.45
2023-02-09T16:37:04.519Z,8.45
2023-02-09T16:38:45.009Z,8.45
2023-02-09T16:40:25.523Z,8.45
2023-02-09T16:42:06.008Z,8.45
2023-02-09T16:43:46.456Z,13
2023-02-09T16:45:26.888Z,13
2023-02-09T16:47:07.299Z,13
2023-02-09T16:48:47.823Z,13
2023-02-09T16:50:28.289Z,13
2023-02-09T16:52:08.761Z,13
2023-02-09T16:53:49.230Z,11.9
2023-02-09T16:55:29.689Z,11.9
2023-02-09T16:57:10.115Z,11.9
2023-02-09T16:58:50.557Z,11.9
2023-02-09T17:00:31.119Z,11.9
2023-02-09T17:02:11.541Z,11.9
2023-02-09T17:03:51.986Z,13.5
2023-02-09T17:05:32.425Z,13.5
2023-02-09T17:07:12.937Z,13.5
2023-02-09T17:08:53.320Z,13.5
2023-02-09T17:10:33.766Z,13.5
2023-02-09T17:12:14.229Z,13.5
2023-02-09T17:13:54.607Z,13
2023-02-09T17:15:35.089Z,13
2023-02-09T17:17:15.556Z,13
2023-02-09T17:18:56.018Z,13
2023-02-09T17:20:36.597Z,13
2023-02-09T17:22:17.042Z,13
2023-02-09T17:23:57.536Z,13.9
2023-02-09T17:25:38.062Z,13.9
2023-02-09T17:27:18.482Z,13.9
2023-02-09T17:28:58.870Z,13.9
2023-02-09T17:30:39.543Z,13.9
2023-02-09T17:32:19.877Z,13.9
2023-02-09T17:34:00.308Z,13.5
2023-02-09T17:37:21.279Z,13.5
2023-02-09T17:39:01.831Z,13.5
2023-02-09T17:40:42.354Z,13.5
2023-02-09T17:42:22.882Z,13.5
2023-02-09T17:44:17.854Z,13.8
2023-02-09T17:45:44.090Z,13.8
2023-02-09T17:47:24.430Z,13.8
2023-02-09T17:49:04.948Z,13.8
2023-02-09T17:50:45.425Z,13.8
2023-02-09T17:52:25.867Z,13.8
2023-02-09T17:54:06.314Z,14.5
2023-02-09T17:55:47.044Z,14.5
2023-02-09T17:57:27.261Z,14.5
2023-02-09T17:59:07.786Z,14.5
2023-02-09T18:00:48.272Z,14.5
2023-02-09T18:02:31.907Z,14.5
2023-02-09T18:04:09.245Z,17
2023-02-09T18:05:49.792Z,17
2023-02-09T18:07:30.206Z,17
2023-02-09T18:09:10.727Z,17
2023-02-09T18:10:51.249Z,17
2023-02-09T18:12:34.819Z,17
2023-02-09T18:14:12.328Z,15.8
2023-02-09T18:15:52.764Z,15.8
2023-02-09T18:17:33.235Z,15.8
2023-02-09T18:19:13.699Z,15.8
2023-02-09T18:20:54.169Z,15.8
2023-02-09T18:22:34.675Z,15.8
2023-02-09T18:24:15.079Z,15.3
2023-02-09T18:25:55.536Z,15.3
2023-02-09T18:27:36.012Z,15.3
2023-02-09T18:29:16.503Z,15.3
2023-02-09T18:30:57.010Z,15.3
2023-02-09T18:32:37.429Z,15.3
2023-02-09T18:34:17.874Z,12.9
2023-02-09T18:35:58.396Z,12.9
2023-02-09T18:37:38.907Z,12.9
2023-02-09T18:39:19.282Z,12.9
2023-02-09T18:40:59.743Z,12.9
2023-02-09T18:42:40.254Z,12.9
2023-02-09T18:44:20.734Z,14.7
2023-02-09T18:46:01.217Z,14.7
2023-02-09T18:47:41.649Z,14.7
2023-02-09T18:49:22.168Z,14.7
2023-02-09T18:51:02.699Z,14.7
2023-02-09T18:52:43.167Z,14.7
2023-02-09T18:54:23.680Z,13.5
2023-02-09T18:56:04.106Z,13.5
2023-02-09T18:57:44.588Z,13.5
2023-02-09T18:59:25.106Z,13.5
2023-02-09T19:01:05.537Z,13.5
2023-02-09T19:02:46.095Z,13.5
2023-02-09T19:04:26.541Z,13.5
2023-02-09T19:06:07.027Z,14.2
2023-02-09T19:07:47.519Z,14.2
2023-02-09T19:09:27.959Z,14.2
2023-02-09T19:11:11.350Z,14.2
2023-02-09T19:12:48.762Z,14.2
2023-02-09T19:14:29.245Z,16.7
2023-02-09T19:16:09.772Z,16.7
2023-02-09T19:17:50.234Z,16.7
2023-02-09T19:19:30.668Z,16.7
2023-02-09T19:21:11.245Z,16.7
2023-02-09T19:22:51.737Z,16.7
2023-02-09T19:24:32.320Z,16.7
2023-02-09T19:26:12.697Z,11.9
2023-02-09T19:27:53.239Z,11.9
2023-02-09T19:29:33.636Z,11.9
2023-02-09T19:31:14.238Z,11.9
2023-02-09T19:32:54.752Z,11.9
2023-02-09T19:34:35.173Z,11.9
2023-02-09T19:36:15.603Z,15.9
2023-02-09T19:37:56.096Z,15.9
2023-02-09T19:39:36.521Z,15.9
2023-02-09T19:41:17.048Z,15.9
2023-02-09T19:42:57.512Z,15.9
2023-02-09T19:44:37.948Z,15.9
2023-02-09T19:46:18.432Z,19.6
2023-02-09T19:47:58.827Z,19.6
2023-02-09T19:49:39.404Z,19.6
2023-02-09T19:51:19.845Z,19.6
2023-02-09T19:53:00.338Z,19.6
2023-02-09T19:54:40.875Z,19.6
2023-02-09T19:56:21.433Z,15.4
2023-02-09T19:58:01.923Z,15.4
2023-02-09T19:59:42.372Z,15.4
2023-02-09T20:01:25.800Z,15.4
2023-02-09T20:03:03.245Z,15.4
2023-02-09T20:04:43.642Z,15.4
2023-02-09T20:06:28.744Z,17.4
2023-02-09T20:08:04.515Z,17.4
2023-02-09T20:09:44.947Z,17.4
2023-02-09T20:11:25.474Z,17.4
2023-02-09T20:13:05.892Z,17.4
2023-02-09T20:14:46.366Z,17.4
2023-02-09T20:16:27.009Z,17.1
2023-02-09T20:18:07.282Z,17.1
2023-02-09T20:19:47.657Z,17.1
2023-02-09T20:21:28.118Z,17.1
2023-02-09T20:23:08.582Z,17.1
2023-02-09T20:24:48.962Z,17.1
2023-02-09T20:26:29.405Z,16.7
2023-02-09T20:28:09.902Z,16.7
2023-02-09T20:29:53.305Z,16.7
2023-02-09T20:31:33.840Z,16.7
2023-02-09T20:33:11.260Z,16.7
2023-02-09T20:34:51.809Z,16.7
2023-02-09T20:36:32.225Z,16.5
2023-02-09T20:38:12.703Z,16.5
2023-02-09T20:39:53.125Z,16.5
2023-02-09T20:41:33.622Z,16.5
2023-02-09T20:43:14.136Z,16.5
2023-02-09T20:44:54.581Z,16.5
2023-02-09T20:46:35.093Z,13.9
2023-02-09T20:48:15.574Z,13.9
2023-02-09T20:49:55.997Z,13.9
2023-02-09T20:51:36.433Z,13.9
2023-02-09T20:53:16.929Z,13.9
2023-02-09T20:54:57.410Z,13.9
2023-02-09T20:56:37.879Z,14.9
2023-02-09T20:58:18.392Z,14.9
2023-02-09T20:59:58.927Z,14.9
2023-02-09T21:01:39.290Z,14.9
2023-02-09T21:03:19.737Z,14.9
2023-02-09T21:05:00.233Z,14.9
2023-02-09T21:06:40.721Z,15.4
2023-02-09T21:08:22.765Z,15.4
2023-02-09T21:10:01.686Z,15.4
2023-02-09T21:11:42.167Z,15.4
2023-02-09T21:13:22.609Z,15.4
2023-02-09T21:15:03.092Z,15.4
2023-02-09T21:16:43.624Z,15.8
2023-02-09T21:18:24.039Z,15.8
2023-02-09T21:20:04.470Z,15.8
2023-02-09T21:21:44.914Z,15.8
2023-02-09T21:23:25.407Z,15.8
2023-02-09T21:25:05.919Z,15.8
2023-02-09T21:26:46.298Z,11.9
2023-02-09T21:28:26.936Z,11.9
2023-02-09T21:30:07.370Z,11.9
2023-02-09T21:31:47.966Z,11.9
2023-02-09T21:33:28.223Z,11.9
2023-02-09T21:35:08.737Z,11.9
2023-02-09T21:36:49.206Z,13.2
2023-02-09T21:38:29.723Z,13.2
2023-02-09T21:40:10.177Z,13.2
2023-02-09T21:41:50.665Z,13.2
2023-02-09T21:43:31.136Z,13.2
2023-02-09T21:45:11.569Z,13.2
2023-02-09T21:46:52.075Z,11.6
2023-02-09T21:48:32.497Z,11.6
2023-02-09T21:50:12.957Z,11.6
2023-02-09T21:51:53.418Z,11.6
2023-02-09T21:53:33.907Z,11.6
2023-02-09T21:55:14.361Z,11.6
2023-02-09T21:56:54.708Z,12.1
2023-02-09T21:58:35.163Z,12.1
2023-02-09T22:00:15.574Z,12.1
2023-02-09T22:01:56.004Z,12.1
2023-02-09T22:03:36.520Z,12.1
2023-02-09T22:05:17.028Z,12.1
2023-02-09T22:06:57.469Z,9
2023-02-09T22:08:37.938Z,9
2023-02-09T22:10:18.434Z,9
2023-02-09T22:11:58.931Z,9
2023-02-09T22:13:39.430Z,9
2023-02-09T22:15:19.924Z,9
2023-02-09T22:17:00.421Z,13
2023-02-09T22:18:40.887Z,13
2023-02-09T22:20:21.400Z,13
2023-02-09T22:22:01.851Z,13
2023-02-09T22:23:42.252Z,13
2023-02-09T22:25:22.749Z,13
2023-02-09T22:27:03.217Z,15.1
2023-02-09T22:28:43.665Z,15.1
2023-02-09T22:30:24.312Z,15.1
2023-02-09T22:32:04.602Z,15.1
2023-02-09T22:33:45.063Z,15.1
2023-02-09T22:35:25.520Z,15.1
2023-02-09T22:37:06.029Z,17.6
2023-02-09T22:38:46.489Z,17.6
2023-02-09T22:40:26.938Z,17.6
2023-02-09T22:42:07.389Z,17.6
2023-02-09T22:43:47.852Z,17.6
2023-02-09T22:45:28.288Z,17.6
2023-02-09T22:47:08.803Z,17.6